< < Back
Terminal Aerodrome Forecast


Current Version              Previous Versions:   1  2  3  4  5  6  7  8  9  

Terminal Aerodrome Forecast

203
FTUS42 KJAX 261100
TAFSSI
TAF
KSSI 261120Z 2612/2712 24008KT P6SM FEW025 BKN250
     FM261700 19009KT P6SM VCTS SCT030CB BKN250
     FM270100 21007KT P6SM SCT035 SCT080 BKN250=



Latest METAR

401
SAUS70 KWBC 261500 RRE
MTRSSI
METAR KSSI 261453Z AUTO 25009KT 10SM FEW018 SCT025 BKN035 29/23 A3006
RMK AO2 SLP179 T02890233 50002


USA.gov is the U.S. government's official web portal to all federal, state and local government web resources and services.